createdAt,value
2022-12-03T00:07:28.059Z,1007.4789999999999
2022-12-03T00:37:46.223Z,1007.3330000000001
2022-12-03T01:08:04.901Z,1007.334
2022-12-03T01:38:23.410Z,1007.284
2022-12-03T02:39:00.073Z,1007.3430000000001
2022-12-03T03:39:35.981Z,1007.204
2022-12-03T04:40:29.376Z,1006.885
2022-12-03T05:10:48.630Z,1006.863
2022-12-03T05:41:05.706Z,1006.937
2022-12-03T06:11:23.798Z,1006.9939999999999
2022-12-03T06:41:42.794Z,1006.795
2022-12-03T07:12:00.386Z,1006.752
2022-12-03T07:42:18.914Z,1006.903
2022-12-03T08:12:38.556Z,1006.832
2022-12-03T08:42:57.008Z,1006.8660000000001
2022-12-03T09:13:16.468Z,1006.9069999999999
2022-12-03T09:44:02.666Z,1006.7360000000001
2022-12-03T10:14:01.075Z,1006.441
2022-12-03T10:44:20.271Z,1006.176
2022-12-03T11:14:42.603Z,1006.005
2022-12-03T11:45:00.259Z,1005.816
2022-12-03T12:15:19.706Z,1005.3330000000001
2022-12-03T12:45:37.844Z,1005.18
2022-12-03T13:15:55.925Z,1005.165
2022-12-03T13:46:14.140Z,1005.0160000000001
2022-12-03T14:16:32.979Z,1004.868
2022-12-03T14:46:56.788Z,1004.7330000000001
2022-12-03T15:17:15.541Z,1004.908
2022-12-03T15:47:33.959Z,1004.8439999999999
2022-12-03T16:17:52.780Z,1004.86
2022-12-03T16:48:10.533Z,1004.7860000000001
2022-12-03T17:18:28.144Z,1004.735
2022-12-03T18:19:06.543Z,1004.471
2022-12-03T18:49:23.904Z,1004.238
2022-12-03T19:19:42.335Z,1004.165
2022-12-03T19:50:05.286Z,1004.11
2022-12-03T20:20:22.049Z,1004.064
2022-12-03T20:50:40.956Z,1004.087
2022-12-03T21:20:59.093Z,1003.936
2022-12-03T21:51:17.643Z,1003.852
2022-12-03T22:21:36.432Z,1003.7539999999999
2022-12-03T22:51:54.015Z,1003.643
2022-12-03T23:22:10.934Z,1003.3660000000001
2022-12-03T23:52:27.448Z,1003.058
